sensor_id;sensor_type;location;lat;lon;timestamp;temperature;humidity
7822;DHT22;3956;50.558;9.678;2023-06-14T00:00:40;16.50;1.00
7822;DHT22;3956;50.558;9.678;2023-06-14T00:03:10;16.50;1.00
7822;DHT22;3956;50.558;9.678;2023-06-14T00:05:40;16.50;1.00
7822;DHT22;3956;50.558;9.678;2023-06-14T00:08:10;16.50;1.00
7822;DHT22;3956;50.558;9.678;2023-06-14T00:10:39;16.40;1.00
7822;DHT22;3956;50.558;9.678;2023-06-14T00:13:09;16.40;1.00
7822;DHT22;3956;50.558;9.678;2023-06-14T00:15:38;16.50;1.00
7822;DHT22;3956;50.558;9.678;2023-06-14T00:18:06;16.40;1.00
7822;DHT22;3956;50.558;9.678;2023-06-14T00:20:36;16.40;1.00
7822;DHT22;3956;50.558;9.678;2023-06-14T00:23:06;16.50;1.00
7822;DHT22;3956;50.558;9.678;2023-06-14T00:25:34;16.30;1.00
7822;DHT22;3956;50.558;9.678;2023-06-14T00:28:02;16.30;1.00
7822;DHT22;3956;50.558;9.678;2023-06-14T00:30:31;16.40;1.00
7822;DHT22;3956;50.558;9.678;2023-06-14T00:33:00;16.40;1.00
7822;DHT22;3956;50.558;9.678;2023-06-14T00:35:38;16.20;1.00
7822;DHT22;3956;50.558;9.678;2023-06-14T00:38:26;16.20;1.00
7822;DHT22;3956;50.558;9.678;2023-06-14T00:40:54;16.20;1.00
7822;DHT22;3956;50.558;9.678;2023-06-14T00:43:22;16.20;1.00
7822;DHT22;3956;50.558;9.678;2023-06-14T00:45:50;16.20;1.00
7822;DHT22;3956;50.558;9.678;2023-06-14T00:48:19;16.20;1.00
7822;DHT22;3956;50.558;9.678;2023-06-14T00:50:48;16.20;1.00
7822;DHT22;3956;50.558;9.678;2023-06-14T00:53:17;16.20;1.00
7822;DHT22;3956;50.558;9.678;2023-06-14T00:55:46;16.20;1.00
7822;DHT22;3956;50.558;9.678;2023-06-14T00:58:15;16.10;1.00
7822;DHT22;3956;50.558;9.678;2023-06-14T01:00:43;16.20;1.00
7822;DHT22;3956;50.558;9.678;2023-06-14T01:03:12;16.10;1.00
7822;DHT22;3956;50.558;9.678;2023-06-14T01:05:42;16.00;1.00
7822;DHT22;3956;50.558;9.678;2023-06-14T01:08:18;15.90;1.00
7822;DHT22;3956;50.558;9.678;2023-06-14T01:11:02;15.90;1.00
7822;DHT22;3956;50.558;9.678;2023-06-14T01:13:37;15.70;1.00
7822;DHT22;3956;50.558;9.678;2023-06-14T01:16:07;15.60;1.00
7822;DHT22;3956;50.558;9.678;2023-06-14T01:18:36;15.70;1.00
7822;DHT22;3956;50.558;9.678;2023-06-14T01:21:22;15.70;1.00
7822;DHT22;3956;50.558;9.678;2023-06-14T01:24:00;15.60;1.00
7822;DHT22;3956;50.558;9.678;2023-06-14T01:26:32;15.60;1.00
7822;DHT22;3956;50.558;9.678;2023-06-14T01:29:00;15.40;1.00
7822;DHT22;3956;50.558;9.678;2023-06-14T01:31:29;15.40;1.00
7822;DHT22;3956;50.558;9.678;2023-06-14T01:34:08;15.30;1.00
7822;DHT22;3956;50.558;9.678;2023-06-14T01:36:44;15.30;1.00
7822;DHT22;3956;50.558;9.678;2023-06-14T01:39:15;15.20;1.00
7822;DHT22;3956;50.558;9.678;2023-06-14T01:41:45;15.20;1.00
7822;DHT22;3956;50.558;9.678;2023-06-14T01:44:17;15.10;1.00
7822;DHT22;3956;50.558;9.678;2023-06-14T01:46:45;15.20;1.00
7822;DHT22;3956;50.558;9.678;2023-06-14T01:49:15;15.00;1.00
7822;DHT22;3956;50.558;9.678;2023-06-14T01:51:43;14.90;1.00
7822;DHT22;3956;50.558;9.678;2023-06-14T01:54:12;14.90;1.00
7822;DHT22;3956;50.558;9.678;2023-06-14T01:56:43;14.90;1.00
7822;DHT22;3956;50.558;9.678;2023-06-14T01:59:13;14.80;1.00
7822;DHT22;3956;50.558;9.678;2023-06-14T02:01:42;14.80;1.00
7822;DHT22;3956;50.558;9.678;2023-06-14T02:04:11;14.70;1.00
7822;DHT22;3956;50.558;9.678;2023-06-14T02:06:40;14.70;1.00
7822;DHT22;3956;50.558;9.678;2023-06-14T02:09:08;14.80;1.00
7822;DHT22;3956;50.558;9.678;2023-06-14T02:11:38;14.60;1.00
7822;DHT22;3956;50.558;9.678;2023-06-14T02:14:08;14.80;1.00
7822;DHT22;3956;50.558;9.678;2023-06-14T02:16:39;14.70;1.00
7822;DHT22;3956;50.558;9.678;2023-06-14T02:19:07;14.40;1.00
7822;DHT22;3956;50.558;9.678;2023-06-14T02:21:35;14.40;1.00
7822;DHT22;3956;50.558;9.678;2023-06-14T02:24:06;14.50;1.00
7822;DHT22;3956;50.558;9.678;2023-06-14T02:26:39;14.20;1.00
7822;DHT22;3956;50.558;9.678;2023-06-14T02:29:14;14.30;1.00
7822;DHT22;3956;50.558;9.678;2023-06-14T02:31:51;14.40;1.00
7822;DHT22;3956;50.558;9.678;2023-06-14T02:34:19;14.40;1.00
7822;DHT22;3956;50.558;9.678;2023-06-14T02:36:53;14.30;1.00
7822;DHT22;3956;50.558;9.678;2023-06-14T02:39:25;14.20;1.00
7822;DHT22;3956;50.558;9.678;2023-06-14T02:41:54;14.20;1.00
7822;DHT22;3956;50.558;9.678;2023-06-14T02:44:26;14.20;1.00
7822;DHT22;3956;50.558;9.678;2023-06-14T02:46:54;14.20;1.00
7822;DHT22;3956;50.558;9.678;2023-06-14T02:49:28;14.20;1.00
7822;DHT22;3956;50.558;9.678;2023-06-14T02:52:13;14.20;1.00
7822;DHT22;3956;50.558;9.678;2023-06-14T02:54:41;14.10;1.00
7822;DHT22;3956;50.558;9.678;2023-06-14T02:57:18;13.90;1.00
7822;DHT22;3956;50.558;9.678;2023-06-14T02:59:51;14.00;1.00
7822;DHT22;3956;50.558;9.678;2023-06-14T03:02:20;14.10;1.00
7822;DHT22;3956;50.558;9.678;2023-06-14T03:04:52;14.00;1.00
7822;DHT22;3956;50.558;9.678;2023-06-14T03:07:30;13.90;1.00
7822;DHT22;3956;50.558;9.678;2023-06-14T03:10:02;13.80;1.00
7822;DHT22;3956;50.558;9.678;2023-06-14T03:12:46;13.80;1.00
7822;DHT22;3956;50.558;9.678;2023-06-14T03:15:38;13.80;1.00
7822;DHT22;3956;50.558;9.678;2023-06-14T03:18:16;13.70;1.00
7822;DHT22;3956;50.558;9.678;2023-06-14T03:20:48;13.60;1.00
7822;DHT22;3956;50.558;9.678;2023-06-14T03:23:20;13.60;1.00
7822;DHT22;3956;50.558;9.678;2023-06-14T03:25:50;13.60;1.00
7822;DHT22;3956;50.558;9.678;2023-06-14T03:28:19;13.60;1.00
7822;DHT22;3956;50.558;9.678;2023-06-14T03:30:49;13.70;1.00
7822;DHT22;3956;50.558;9.678;2023-06-14T03:33:21;13.50;1.00
7822;DHT22;3956;50.558;9.678;2023-06-14T03:35:56;13.40;1.00
7822;DHT22;3956;50.558;9.678;2023-06-14T03:38:25;13.50;1.00
7822;DHT22;3956;50.558;9.678;2023-06-14T03:40:54;13.60;1.00
7822;DHT22;3956;50.558;9.678;2023-06-14T03:43:24;13.50;1.00
7822;DHT22;3956;50.558;9.678;2023-06-14T03:46:02;13.50;1.00
7822;DHT22;3956;50.558;9.678;2023-06-14T03:48:43;13.50;1.00
7822;DHT22;3956;50.558;9.678;2023-06-14T03:51:16;13.40;1.00
7822;DHT22;3956;50.558;9.678;2023-06-14T03:53:47;13.50;1.00
7822;DHT22;3956;50.558;9.678;2023-06-14T03:56:28;13.40;1.00
7822;DHT22;3956;50.558;9.678;2023-06-14T03:59:04;13.30;1.00
7822;DHT22;3956;50.558;9.678;2023-06-14T04:01:35;13.20;1.00
7822;DHT22;3956;50.558;9.678;2023-06-14T04:04:05;13.40;1.00
7822;DHT22;3956;50.558;9.678;2023-06-14T04:06:34;13.50;1.00
7822;DHT22;3956;50.558;9.678;2023-06-14T04:09:04;13.50;1.00
7822;DHT22;3956;50.558;9.678;2023-06-14T04:11:39;13.50;1.00
7822;DHT22;3956;50.558;9.678;2023-06-14T04:14:19;13.70;1.00
7822;DHT22;3956;50.558;9.678;2023-06-14T04:17:16;13.70;1.00
7822;DHT22;3956;50.558;9.678;2023-06-14T04:19:50;13.80;1.00
7822;DHT22;3956;50.558;9.678;2023-06-14T04:22:26;13.70;1.00
7822;DHT22;3956;50.558;9.678;2023-06-14T04:25:00;13.50;1.00
7822;DHT22;3956;50.558;9.678;2023-06-14T04:27:31;13.50;1.00
7822;DHT22;3956;50.558;9.678;2023-06-14T04:30:06;13.80;1.00
7822;DHT22;3956;50.558;9.678;2023-06-14T04:32:36;13.70;1.00
7822;DHT22;3956;50.558;9.678;2023-06-14T04:35:07;13.50;1.00
7822;DHT22;3956;50.558;9.678;2023-06-14T04:37:36;13.50;1.00
7822;DHT22;3956;50.558;9.678;2023-06-14T04:40:08;13.70;1.00
7822;DHT22;3956;50.558;9.678;2023-06-14T04:42:38;13.70;1.00
7822;DHT22;3956;50.558;9.678;2023-06-14T04:45:11;13.70;1.00
7822;DHT22;3956;50.558;9.678;2023-06-14T04:47:49;13.90;1.00
7822;DHT22;3956;50.558;9.678;2023-06-14T04:50:26;14.00;1.00
7822;DHT22;3956;50.558;9.678;2023-06-14T04:52:56;14.00;1.00
7822;DHT22;3956;50.558;9.678;2023-06-14T04:55:28;13.80;1.00
7822;DHT22;3956;50.558;9.678;2023-06-14T04:58:03;13.80;1.00
7822;DHT22;3956;50.558;9.678;2023-06-14T05:01:13;14.10;1.00
7822;DHT22;3956;50.558;9.678;2023-06-14T05:03:50;14.30;1.00
7822;DHT22;3956;50.558;9.678;2023-06-14T05:06:18;14.40;1.00
7822;DHT22;3956;50.558;9.678;2023-06-14T05:08:53;14.40;1.00
7822;DHT22;3956;50.558;9.678;2023-06-14T05:11:31;14.30;1.00
7822;DHT22;3956;50.558;9.678;2023-06-14T05:13:59;14.40;1.00
7822;DHT22;3956;50.558;9.678;2023-06-14T05:16:28;14.20;1.00
7822;DHT22;3956;50.558;9.678;2023-06-14T05:19:11;14.20;1.00
7822;DHT22;3956;50.558;9.678;2023-06-14T05:22:03;14.50;1.00
7822;DHT22;3956;50.558;9.678;2023-06-14T05:24:32;14.40;1.00
7822;DHT22;3956;50.558;9.678;2023-06-14T05:27:08;14.50;1.00
7822;DHT22;3956;50.558;9.678;2023-06-14T05:30:00;14.40;1.00
7822;DHT22;3956;50.558;9.678;2023-06-14T05:32:40;14.60;1.00
7822;DHT22;3956;50.558;9.678;2023-06-14T05:39:30;14.50;1.00
7822;DHT22;3956;50.558;9.678;2023-06-14T05:41:59;14.60;1.00
7822;DHT22;3956;50.558;9.678;2023-06-14T05:44:28;14.60;1.00
7822;DHT22;3956;50.558;9.678;2023-06-14T05:47:06;14.70;1.00
7822;DHT22;3956;50.558;9.678;2023-06-14T05:49:50;14.70;1.00
7822;DHT22;3956;50.558;9.678;2023-06-14T05:52:59;15.00;1.00
7822;DHT22;3956;50.558;9.678;2023-06-14T05:55:33;15.00;1.00
7822;DHT22;3956;50.558;9.678;2023-06-14T05:58:14;15.10;1.00
7822;DHT22;3956;50.558;9.678;2023-06-14T06:00:47;15.20;1.00
7822;DHT22;3956;50.558;9.678;2023-06-14T06:03:16;15.40;1.00
7822;DHT22;3956;50.558;9.678;2023-06-14T06:05:45;15.20;1.00
7822;DHT22;3956;50.558;9.678;2023-06-14T06:08:16;15.50;1.00
7822;DHT22;3956;50.558;9.678;2023-06-14T06:10:45;15.50;1.00
7822;DHT22;3956;50.558;9.678;2023-06-14T06:13:13;15.50;1.00
7822;DHT22;3956;50.558;9.678;2023-06-14T06:15:42;15.60;1.00
7822;DHT22;3956;50.558;9.678;2023-06-14T06:18:15;15.90;1.00
7822;DHT22;3956;50.558;9.678;2023-06-14T06:20:44;16.10;1.00
7822;DHT22;3956;50.558;9.678;2023-06-14T06:23:14;16.10;1.00
7822;DHT22;3956;50.558;9.678;2023-06-14T06:25:46;16.10;1.00
7822;DHT22;3956;50.558;9.678;2023-06-14T06:28:19;16.00;1.00
7822;DHT22;3956;50.558;9.678;2023-06-14T06:30:49;16.00;1.00
7822;DHT22;3956;50.558;9.678;2023-06-14T06:33:18;16.20;1.00
7822;DHT22;3956;50.558;9.678;2023-06-14T06:35:47;16.40;1.00
7822;DHT22;3956;50.558;9.678;2023-06-14T06:38:41;16.50;1.00
7822;DHT22;3956;50.558;9.678;2023-06-14T06:41:51;16.80;1.00
7822;DHT22;3956;50.558;9.678;2023-06-14T06:44:20;17.20;1.00
7822;DHT22;3956;50.558;9.678;2023-06-14T06:46:54;18.60;1.00
7822;DHT22;3956;50.558;9.678;2023-06-14T06:49:23;19.00;1.00
7822;DHT22;3956;50.558;9.678;2023-06-14T06:52:01;19.80;1.00
7822;DHT22;3956;50.558;9.678;2023-06-14T06:54:39;21.40;1.00
7822;DHT22;3956;50.558;9.678;2023-06-14T06:57:09;22.80;1.00
7822;DHT22;3956;50.558;9.678;2023-06-14T06:59:41;22.50;1.00
7822;DHT22;3956;50.558;9.678;2023-06-14T07:02:09;22.90;1.00
7822;DHT22;3956;50.558;9.678;2023-06-14T07:04:40;22.30;1.00
7822;DHT22;3956;50.558;9.678;2023-06-14T07:07:10;20.40;1.00
7822;DHT22;3956;50.558;9.678;2023-06-14T07:09:59;21.70;1.00
7822;DHT22;3956;50.558;9.678;2023-06-14T07:13:13;23.70;1.00
7822;DHT22;3956;50.558;9.678;2023-06-14T07:15:59;23.10;1.00
7822;DHT22;3956;50.558;9.678;2023-06-14T07:18:43;21.50;1.00
7822;DHT22;3956;50.558;9.678;2023-06-14T07:21:15;21.80;1.00
7822;DHT22;3956;50.558;9.678;2023-06-14T07:23:45;23.50;1.00
7822;DHT22;3956;50.558;9.678;2023-06-14T07:26:13;22.70;1.00
7822;DHT22;3956;50.558;9.678;2023-06-14T07:28:44;23.70;1.00
7822;DHT22;3956;50.558;9.678;2023-06-14T07:31:12;21.00;1.00
7822;DHT22;3956;50.558;9.678;2023-06-14T07:33:43;21.70;1.00
7822;DHT22;3956;50.558;9.678;2023-06-14T07:36:14;23.10;1.00
7822;DHT22;3956;50.558;9.678;2023-06-14T07:39:00;19.90;1.00
7822;DHT22;3956;50.558;9.678;2023-06-14T07:42:08;21.00;1.00
7822;DHT22;3956;50.558;9.678;2023-06-14T07:44:55;21.50;1.00
7822;DHT22;3956;50.558;9.678;2023-06-14T07:47:52;21.70;1.00
7822;DHT22;3956;50.558;9.678;2023-06-14T07:50:39;21.40;1.00
7822;DHT22;3956;50.558;9.678;2023-06-14T07:53:09;21.30;1.00
7822;DHT22;3956;50.558;9.678;2023-06-14T07:55:40;22.10;1.00
7822;DHT22;3956;50.558;9.678;2023-06-14T07:58:31;21.80;1.00
7822;DHT22;3956;50.558;9.678;2023-06-14T08:01:28;22.90;1.00
7822;DHT22;3956;50.558;9.678;2023-06-14T08:04:23;21.80;1.00
7822;DHT22;3956;50.558;9.678;2023-06-14T08:07:02;23.70;1.00
7822;DHT22;3956;50.558;9.678;2023-06-14T08:09:35;21.70;1.00
7822;DHT22;3956;50.558;9.678;2023-06-14T08:12:14;24.20;1.00
7822;DHT22;3956;50.558;9.678;2023-06-14T08:14:43;21.70;1.00
7822;DHT22;3956;50.558;9.678;2023-06-14T08:17:13;21.50;1.00
7822;DHT22;3956;50.558;9.678;2023-06-14T08:19:50;22.80;1.00
7822;DHT22;3956;50.558;9.678;2023-06-14T08:22:55;21.60;1.00
7822;DHT22;3956;50.558;9.678;2023-06-14T08:25:24;23.10;1.00
7822;DHT22;3956;50.558;9.678;2023-06-14T08:27:59;22.00;1.00
7822;DHT22;3956;50.558;9.678;2023-06-14T08:30:48;22.80;1.00
7822;DHT22;3956;50.558;9.678;2023-06-14T08:33:22;24.00;1.00
7822;DHT22;3956;50.558;9.678;2023-06-14T08:35:54;23.20;1.00
7822;DHT22;3956;50.558;9.678;2023-06-14T08:38:22;23.70;1.00
7822;DHT22;3956;50.558;9.678;2023-06-14T08:40:51;22.70;1.00
7822;DHT22;3956;50.558;9.678;2023-06-14T08:43:42;22.10;1.00
7822;DHT22;3956;50.558;9.678;2023-06-14T08:46:25;23.20;1.00
7822;DHT22;3956;50.558;9.678;2023-06-14T08:49:04;22.90;1.00
7822;DHT22;3956;50.558;9.678;2023-06-14T08:51:40;22.90;1.00
7822;DHT22;3956;50.558;9.678;2023-06-14T08:54:09;22.80;1.00
7822;DHT22;3956;50.558;9.678;2023-06-14T08:56:38;24.00;1.00
7822;DHT22;3956;50.558;9.678;2023-06-14T08:59:09;24.00;1.00
7822;DHT22;3956;50.558;9.678;2023-06-14T09:01:42;21.60;1.00
7822;DHT22;3956;50.558;9.678;2023-06-14T09:04:35;25.10;1.00
7822;DHT22;3956;50.558;9.678;2023-06-14T09:07:05;24.40;1.00
7822;DHT22;3956;50.558;9.678;2023-06-14T09:09:40;26.80;1.00
7822;DHT22;3956;50.558;9.678;2023-06-14T09:12:44;23.60;1.00
7822;DHT22;3956;50.558;9.678;2023-06-14T09:15:12;22.90;1.00
7822;DHT22;3956;50.558;9.678;2023-06-14T09:17:45;23.20;1.00
7822;DHT22;3956;50.558;9.678;2023-06-14T09:20:23;24.50;1.00
7822;DHT22;3956;50.558;9.678;2023-06-14T09:23:20;22.80;1.00
7822;DHT22;3956;50.558;9.678;2023-06-14T09:26:23;22.30;1.00
7822;DHT22;3956;50.558;9.678;2023-06-14T09:29:32;24.40;1.00
7822;DHT22;3956;50.558;9.678;2023-06-14T09:32:05;26.20;1.00
7822;DHT22;3956;50.558;9.678;2023-06-14T09:35:08;22.10;1.00
7822;DHT22;3956;50.558;9.678;2023-06-14T09:38:02;22.20;1.00
7822;DHT22;3956;50.558;9.678;2023-06-14T09:41:30;22.30;1.00
7822;DHT22;3956;50.558;9.678;2023-06-14T09:45:02;23.00;1.00
7822;DHT22;3956;50.558;9.678;2023-06-14T09:49:08;25.30;1.00
7822;DHT22;3956;50.558;9.678;2023-06-14T09:52:12;21.80;1.00
7822;DHT22;3956;50.558;9.678;2023-06-14T09:54:48;22.50;1.00
7822;DHT22;3956;50.558;9.678;2023-06-14T09:57:21;24.40;1.00
7822;DHT22;3956;50.558;9.678;2023-06-14T09:59:57;21.80;1.00
7822;DHT22;3956;50.558;9.678;2023-06-14T10:03:03;23.20;1.00
7822;DHT22;3956;50.558;9.678;2023-06-14T10:05:55;22.60;1.00
7822;DHT22;3956;50.558;9.678;2023-06-14T10:10:57;22.50;1.00
7822;DHT22;3956;50.558;9.678;2023-06-14T10:13:28;22.40;1.00
7822;DHT22;3956;50.558;9.678;2023-06-14T10:16:07;22.40;1.00
7822;DHT22;3956;50.558;9.678;2023-06-14T10:18:45;22.20;1.00
7822;DHT22;3956;50.558;9.678;2023-06-14T10:21:25;22.20;1.00
7822;DHT22;3956;50.558;9.678;2023-06-14T10:24:26;22.50;1.00
7822;DHT22;3956;50.558;9.678;2023-06-14T10:27:25;22.60;1.00
7822;DHT22;3956;50.558;9.678;2023-06-14T10:30:26;22.50;1.00
7822;DHT22;3956;50.558;9.678;2023-06-14T10:33:19;21.70;1.00
7822;DHT22;3956;50.558;9.678;2023-06-14T10:35:49;21.10;1.00
7822;DHT22;3956;50.558;9.678;2023-06-14T10:38:36;21.00;1.00
7822;DHT22;3956;50.558;9.678;2023-06-14T10:41:06;21.90;1.00
7822;DHT22;3956;50.558;9.678;2023-06-14T10:50:45;21.50;1.00
7822;DHT22;3956;50.558;9.678;2023-06-14T10:53:44;22.20;1.00
7822;DHT22;3956;50.558;9.678;2023-06-14T10:56:30;22.10;1.00
7822;DHT22;3956;50.558;9.678;2023-06-14T10:59:08;22.70;1.00
7822;DHT22;3956;50.558;9.678;2023-06-14T11:01:41;22.30;1.00
7822;DHT22;3956;50.558;9.678;2023-06-14T11:04:18;22.40;1.00
7822;DHT22;3956;50.558;9.678;2023-06-14T11:07:18;22.70;1.00
7822;DHT22;3956;50.558;9.678;2023-06-14T11:10:34;21.80;1.00
7822;DHT22;3956;50.558;9.678;2023-06-14T11:13:45;21.10;1.00
7822;DHT22;3956;50.558;9.678;2023-06-14T11:16:20;21.30;1.00
7822;DHT22;3956;50.558;9.678;2023-06-14T11:18:57;22.30;1.00
7822;DHT22;3956;50.558;9.678;2023-06-14T11:21:33;22.30;1.00
7822;DHT22;3956;50.558;9.678;2023-06-14T11:24:04;22.50;1.00
7822;DHT22;3956;50.558;9.678;2023-06-14T11:27:02;22.70;1.00
7822;DHT22;3956;50.558;9.678;2023-06-14T11:29:48;21.70;1.00
7822;DHT22;3956;50.558;9.678;2023-06-14T11:32:35;22.30;1.00
7822;DHT22;3956;50.558;9.678;2023-06-14T11:35:52;22.10;1.00
7822;DHT22;3956;50.558;9.678;2023-06-14T11:38:36;22.70;1.00
7822;DHT22;3956;50.558;9.678;2023-06-14T11:41:34;23.00;1.00
7822;DHT22;3956;50.558;9.678;2023-06-14T11:44:16;21.70;1.00
7822;DHT22;3956;50.558;9.678;2023-06-14T11:46:53;22.90;1.00
7822;DHT22;3956;50.558;9.678;2023-06-14T11:49:34;22.70;1.00
7822;DHT22;3956;50.558;9.678;2023-06-14T11:52:15;22.20;1.00
7822;DHT22;3956;50.558;9.678;2023-06-14T11:55:05;22.20;1.00
7822;DHT22;3956;50.558;9.678;2023-06-14T11:58:01;22.30;1.00
7822;DHT22;3956;50.558;9.678;2023-06-14T12:00:31;21.20;1.00
7822;DHT22;3956;50.558;9.678;2023-06-14T12:03:16;21.50;1.00
7822;DHT22;3956;50.558;9.678;2023-06-14T12:08:49;22.90;1.00
7822;DHT22;3956;50.558;9.678;2023-06-14T12:11:40;22.60;1.00
7822;DHT22;3956;50.558;9.678;2023-06-14T12:14:10;21.90;1.00
7822;DHT22;3956;50.558;9.678;2023-06-14T12:16:40;21.80;1.00
7822;DHT22;3956;50.558;9.678;2023-06-14T12:19:13;21.60;1.00
7822;DHT22;3956;50.558;9.678;2023-06-14T12:21:54;22.30;1.00
7822;DHT22;3956;50.558;9.678;2023-06-14T12:24:36;23.00;1.00
7822;DHT22;3956;50.558;9.678;2023-06-14T12:27:06;22.70;1.00
7822;DHT22;3956;50.558;9.678;2023-06-14T12:30:05;22.10;1.00
7822;DHT22;3956;50.558;9.678;2023-06-14T12:32:37;22.40;1.00
7822;DHT22;3956;50.558;9.678;2023-06-14T12:35:08;22.80;1.00
7822;DHT22;3956;50.558;9.678;2023-06-14T12:37:41;22.50;1.00
7822;DHT22;3956;50.558;9.678;2023-06-14T12:40:14;22.60;1.00
7822;DHT22;3956;50.558;9.678;2023-06-14T12:42:49;23.20;1.00
7822;DHT22;3956;50.558;9.678;2023-06-14T12:45:25;23.80;1.00
7822;DHT22;3956;50.558;9.678;2023-06-14T12:47:55;22.80;1.00
7822;DHT22;3956;50.558;9.678;2023-06-14T12:50:33;21.30;1.00
7822;DHT22;3956;50.558;9.678;2023-06-14T12:53:03;22.20;1.00
7822;DHT22;3956;50.558;9.678;2023-06-14T12:55:45;23.00;1.00
7822;DHT22;3956;50.558;9.678;2023-06-14T12:59:00;23.30;1.00
7822;DHT22;3956;50.558;9.678;2023-06-14T13:02:24;22.90;1.00
7822;DHT22;3956;50.558;9.678;2023-06-14T13:04:56;22.60;1.00
7822;DHT22;3956;50.558;9.678;2023-06-14T13:07:34;23.40;1.00
7822;DHT22;3956;50.558;9.678;2023-06-14T13:10:19;22.80;1.00
7822;DHT22;3956;50.558;9.678;2023-06-14T13:13:12;22.40;1.00
7822;DHT22;3956;50.558;9.678;2023-06-14T13:16:15;23.20;1.00
7822;DHT22;3956;50.558;9.678;2023-06-14T13:18:48;24.10;1.00
7822;DHT22;3956;50.558;9.678;2023-06-14T13:21:19;23.50;1.00
7822;DHT22;3956;50.558;9.678;2023-06-14T13:23:50;23.30;1.00
7822;DHT22;3956;50.558;9.678;2023-06-14T13:26:34;23.50;1.00
7822;DHT22;3956;50.558;9.678;2023-06-14T13:29:43;23.30;1.00
7822;DHT22;3956;50.558;9.678;2023-06-14T13:36:36;23.10;1.00
7822;DHT22;3956;50.558;9.678;2023-06-14T13:39:42;23.10;1.00
7822;DHT22;3956;50.558;9.678;2023-06-14T13:43:25;23.60;1.00
7822;DHT22;3956;50.558;9.678;2023-06-14T13:46:22;23.30;1.00
7822;DHT22;3956;50.558;9.678;2023-06-14T13:48:55;24.50;1.00
7822;DHT22;3956;50.558;9.678;2023-06-14T13:51:32;23.20;1.00
7822;DHT22;3956;50.558;9.678;2023-06-14T13:54:02;22.60;1.00
7822;DHT22;3956;50.558;9.678;2023-06-14T13:56:43;22.80;1.00
7822;DHT22;3956;50.558;9.678;2023-06-14T13:59:42;22.90;1.00
7822;DHT22;3956;50.558;9.678;2023-06-14T14:02:12;22.50;1.00
7822;DHT22;3956;50.558;9.678;2023-06-14T14:04:49;22.40;1.00
7822;DHT22;3956;50.558;9.678;2023-06-14T14:07:36;22.70;1.00
7822;DHT22;3956;50.558;9.678;2023-06-14T14:10:08;22.60;1.00
7822;DHT22;3956;50.558;9.678;2023-06-14T14:13:03;22.70;1.00
7822;DHT22;3956;50.558;9.678;2023-06-14T14:15:32;23.40;1.00
7822;DHT22;3956;50.558;9.678;2023-06-14T14:18:03;23.60;1.00
7822;DHT22;3956;50.558;9.678;2023-06-14T14:20:34;22.60;1.00
7822;DHT22;3956;50.558;9.678;2023-06-14T14:23:33;23.00;1.00
7822;DHT22;3956;50.558;9.678;2023-06-14T14:26:23;23.40;1.00
7822;DHT22;3956;50.558;9.678;2023-06-14T14:29:33;23.10;1.00
7822;DHT22;3956;50.558;9.678;2023-06-14T14:32:05;23.60;1.00
7822;DHT22;3956;50.558;9.678;2023-06-14T14:34:43;24.10;1.00
7822;DHT22;3956;50.558;9.678;2023-06-14T14:37:20;23.10;1.00
7822;DHT22;3956;50.558;9.678;2023-06-14T14:40:35;24.20;1.00
7822;DHT22;3956;50.558;9.678;2023-06-14T14:43:24;23.20;1.00
7822;DHT22;3956;50.558;9.678;2023-06-14T14:46:07;23.60;1.00
7822;DHT22;3956;50.558;9.678;2023-06-14T14:48:47;23.10;1.00
7822;DHT22;3956;50.558;9.678;2023-06-14T14:51:22;23.10;1.00
7822;DHT22;3956;50.558;9.678;2023-06-14T14:54:02;22.90;1.00
7822;DHT22;3956;50.558;9.678;2023-06-14T14:57:07;23.00;1.00
7822;DHT22;3956;50.558;9.678;2023-06-14T14:59:40;23.80;1.00
7822;DHT22;3956;50.558;9.678;2023-06-14T15:02:48;24.00;1.00
7822;DHT22;3956;50.558;9.678;2023-06-14T15:05:42;23.30;1.00
7822;DHT22;3956;50.558;9.678;2023-06-14T15:08:13;23.30;1.00
7822;DHT22;3956;50.558;9.678;2023-06-14T15:11:10;24.00;1.00
7822;DHT22;3956;50.558;9.678;2023-06-14T15:14:02;23.20;1.00
7822;DHT22;3956;50.558;9.678;2023-06-14T15:20:14;23.50;1.00
7822;DHT22;3956;50.558;9.678;2023-06-14T15:22:57;23.80;1.00
7822;DHT22;3956;50.558;9.678;2023-06-14T15:25:27;24.00;1.00
7822;DHT22;3956;50.558;9.678;2023-06-14T15:27:56;23.50;1.00
7822;DHT22;3956;50.558;9.678;2023-06-14T15:30:26;24.00;1.00
7822;DHT22;3956;50.558;9.678;2023-06-14T15:32:57;23.90;1.00
7822;DHT22;3956;50.558;9.678;2023-06-14T15:35:28;23.10;1.00
7822;DHT22;3956;50.558;9.678;2023-06-14T15:38:08;23.40;1.00
7822;DHT22;3956;50.558;9.678;2023-06-14T15:40:43;23.50;1.00
7822;DHT22;3956;50.558;9.678;2023-06-14T15:43:18;23.50;1.00
7822;DHT22;3956;50.558;9.678;2023-06-14T15:45:49;23.30;1.00
7822;DHT22;3956;50.558;9.678;2023-06-14T15:48:21;23.50;1.00
7822;DHT22;3956;50.558;9.678;2023-06-14T15:51:38;23.50;1.00
7822;DHT22;3956;50.558;9.678;2023-06-14T15:54:46;23.50;1.00
7822;DHT22;3956;50.558;9.678;2023-06-14T15:57:53;22.90;1.00
7822;DHT22;3956;50.558;9.678;2023-06-14T16:00:25;23.10;1.00
7822;DHT22;3956;50.558;9.678;2023-06-14T16:03:05;22.90;1.00
7822;DHT22;3956;50.558;9.678;2023-06-14T16:05:36;23.10;1.00
7822;DHT22;3956;50.558;9.678;2023-06-14T16:08:11;23.40;1.00
7822;DHT22;3956;50.558;9.678;2023-06-14T16:11:07;23.40;1.00
7822;DHT22;3956;50.558;9.678;2023-06-14T16:13:55;23.10;1.00
7822;DHT22;3956;50.558;9.678;2023-06-14T16:17:06;23.10;1.00
7822;DHT22;3956;50.558;9.678;2023-06-14T16:20:03;23.00;1.00
7822;DHT22;3956;50.558;9.678;2023-06-14T16:26:31;23.20;1.00
7822;DHT22;3956;50.558;9.678;2023-06-14T16:29:08;23.20;1.00
7822;DHT22;3956;50.558;9.678;2023-06-14T16:31:53;22.90;1.00
7822;DHT22;3956;50.558;9.678;2023-06-14T16:38:35;22.90;1.00
7822;DHT22;3956;50.558;9.678;2023-06-14T16:41:36;23.10;1.00
7822;DHT22;3956;50.558;9.678;2023-06-14T16:44:08;22.90;1.00
7822;DHT22;3956;50.558;9.678;2023-06-14T16:46:38;22.80;1.00
7822;DHT22;3956;50.558;9.678;2023-06-14T16:49:07;22.70;1.00
7822;DHT22;3956;50.558;9.678;2023-06-14T16:51:35;22.70;1.00
7822;DHT22;3956;50.558;9.678;2023-06-14T16:54:05;22.50;1.00
7822;DHT22;3956;50.558;9.678;2023-06-14T16:56:34;22.40;1.00
7822;DHT22;3956;50.558;9.678;2023-06-14T16:59:05;22.50;1.00
7822;DHT22;3956;50.558;9.678;2023-06-14T17:01:50;22.60;1.00
7822;DHT22;3956;50.558;9.678;2023-06-14T17:04:31;22.70;1.00
7822;DHT22;3956;50.558;9.678;2023-06-14T17:07:15;22.20;1.00
7822;DHT22;3956;50.558;9.678;2023-06-14T17:09:45;22.10;1.00
7822;DHT22;3956;50.558;9.678;2023-06-14T17:12:15;22.40;1.00
7822;DHT22;3956;50.558;9.678;2023-06-14T17:14:51;22.00;1.00
7822;DHT22;3956;50.558;9.678;2023-06-14T17:17:35;22.20;1.00
7822;DHT22;3956;50.558;9.678;2023-06-14T17:20:05;22.00;1.00
7822;DHT22;3956;50.558;9.678;2023-06-14T17:22:35;22.00;1.00
7822;DHT22;3956;50.558;9.678;2023-06-14T17:25:06;22.00;1.00
7822;DHT22;3956;50.558;9.678;2023-06-14T17:27:44;21.70;1.00
7822;DHT22;3956;50.558;9.678;2023-06-14T17:30:16;21.60;1.00
7822;DHT22;3956;50.558;9.678;2023-06-14T17:32:44;21.50;1.00
7822;DHT22;3956;50.558;9.678;2023-06-14T17:35:14;21.50;1.00
7822;DHT22;3956;50.558;9.678;2023-06-14T17:37:46;21.50;1.00
7822;DHT22;3956;50.558;9.678;2023-06-14T17:40:42;21.70;1.00
7822;DHT22;3956;50.558;9.678;2023-06-14T17:44:03;21.90;1.00
7822;DHT22;3956;50.558;9.678;2023-06-14T17:47:06;21.70;1.00
7822;DHT22;3956;50.558;9.678;2023-06-14T17:49:58;21.50;1.00
7822;DHT22;3956;50.558;9.678;2023-06-14T17:52:58;21.60;1.00
7822;DHT22;3956;50.558;9.678;2023-06-14T17:55:44;21.70;1.00
7822;DHT22;3956;50.558;9.678;2023-06-14T17:58:16;21.60;1.00
7822;DHT22;3956;50.558;9.678;2023-06-14T18:00:52;21.60;1.00
7822;DHT22;3956;50.558;9.678;2023-06-14T18:07:37;21.50;1.00
7822;DHT22;3956;50.558;9.678;2023-06-14T18:10:31;21.30;1.00
7822;DHT22;3956;50.558;9.678;2023-06-14T18:13:00;21.30;1.00